createdAt,value
2023-03-14T00:01:01.726Z,16.60
2023-03-14T00:03:31.047Z,16.70
2023-03-14T00:06:04.147Z,16.70
2023-03-14T00:08:32.184Z,16.50
2023-03-14T00:11:00.057Z,16.70
2023-03-14T00:13:27.772Z,16.50
2023-03-14T00:15:55.742Z,16.70
2023-03-14T00:18:23.683Z,16.70
2023-03-14T00:20:54.559Z,16.60
2023-03-14T00:23:23.620Z,16.60
2023-03-14T00:25:51.308Z,16.60
2023-03-14T00:28:19.254Z,16.60
2023-03-14T00:30:46.988Z,16.40
2023-03-14T00:33:14.686Z,16.10
2023-03-14T00:35:42.601Z,16.40
2023-03-14T00:38:10.256Z,16.50
2023-03-14T00:40:42.217Z,16.40
2023-03-14T00:43:09.928Z,16.40
2023-03-14T00:45:37.616Z,16.50
2023-03-14T00:48:05.574Z,16.50
2023-03-14T00:50:33.277Z,16.30
2023-03-14T00:53:01.056Z,16.30
2023-03-14T00:55:28.890Z,16.20
2023-03-14T00:57:57.989Z,16.20
2023-03-14T01:00:25.703Z,16.30
2023-03-14T01:02:53.598Z,16.30
2023-03-14T01:05:21.303Z,16.50
2023-03-14T01:07:49.003Z,16.50
2023-03-14T01:10:17.400Z,16.60
2023-03-14T01:12:45.282Z,16.70
2023-03-14T01:15:14.472Z,16.70
2023-03-14T01:17:42.356Z,16.70
2023-03-14T01:20:13.893Z,16.50
2023-03-14T01:22:42.714Z,16.60
2023-03-14T01:25:12.527Z,16.60
2023-03-14T01:27:40.319Z,16.50
2023-03-14T01:30:10.185Z,16.30
2023-03-14T01:32:39.456Z,16.40
2023-03-14T01:35:08.054Z,16.20
2023-03-14T01:37:35.797Z,16.40
2023-03-14T01:40:04.828Z,16.10
2023-03-14T01:42:32.593Z,16.10
2023-03-14T01:45:03.137Z,15.90
2023-03-14T01:47:30.979Z,15.90
2023-03-14T01:50:03.641Z,15.30
2023-03-14T01:52:36.064Z,16.20
2023-03-14T01:55:07.840Z,16.00
2023-03-14T01:57:38.992Z,16.00
2023-03-14T02:00:12.473Z,16.20
2023-03-14T02:02:43.083Z,16.00
2023-03-14T02:05:14.155Z,15.80
2023-03-14T02:07:48.042Z,16.00
2023-03-14T02:10:17.110Z,15.70
2023-03-14T02:12:45.678Z,15.90
2023-03-14T02:15:13.576Z,15.90
2023-03-14T02:17:44.397Z,16.00
2023-03-14T02:20:33.160Z,15.90
2023-03-14T02:23:01.185Z,16.10
2023-03-14T02:25:38.738Z,15.90
2023-03-14T02:28:08.118Z,16.00
2023-03-14T02:30:36.132Z,15.60
2023-03-14T02:33:06.252Z,15.70
2023-03-14T02:35:37.870Z,16.00
2023-03-14T02:38:12.861Z,15.70
2023-03-14T02:40:40.603Z,15.90
2023-03-14T02:43:09.774Z,16.10
2023-03-14T02:45:44.108Z,15.70
2023-03-14T02:48:16.737Z,16.00
2023-03-14T02:50:47.365Z,15.90
2023-03-14T02:53:19.158Z,15.80
2023-03-14T02:55:48.232Z,16.10
2023-03-14T02:58:18.112Z,16.00
2023-03-14T03:00:45.892Z,15.80
2023-03-14T03:03:14.123Z,15.70
2023-03-14T03:05:41.905Z,15.40
2023-03-14T03:08:10.343Z,15.70
2023-03-14T03:10:38.398Z,15.20
2023-03-14T03:13:06.082Z,15.30
2023-03-14T03:15:35.160Z,15.40
2023-03-14T03:18:02.832Z,15.80
2023-03-14T03:20:30.599Z,15.50
2023-03-14T03:22:58.367Z,15.60
2023-03-14T03:25:26.162Z,15.50
2023-03-14T03:27:54.257Z,15.40
2023-03-14T03:30:22.552Z,15.60
2023-03-14T03:32:51.723Z,15.70
2023-03-14T03:35:19.610Z,15.70
2023-03-14T03:37:47.365Z,15.30
2023-03-14T03:40:15.230Z,15.00
2023-03-14T03:42:43.100Z,15.30
2023-03-14T03:45:11.829Z,15.40
2023-03-14T03:47:39.585Z,15.30
2023-03-14T03:50:10.183Z,15.60
2023-03-14T03:52:37.846Z,14.60
2023-03-14T03:55:06.288Z,15.20
2023-03-14T03:57:33.944Z,15.60
2023-03-14T04:00:01.657Z,15.10
2023-03-14T04:02:29.465Z,14.70
2023-03-14T04:04:57.315Z,14.20
2023-03-14T04:07:26.427Z,14.40
2023-03-14T04:09:54.311Z,14.40
2023-03-14T04:12:22.053Z,14.40
2023-03-14T04:14:49.746Z,14.30
2023-03-14T04:17:17.550Z,14.30
2023-03-14T04:19:45.329Z,14.00
2023-03-14T04:22:13.047Z,14.00
2023-03-14T04:24:42.147Z,14.00
2023-03-14T04:27:09.860Z,14.00
2023-03-14T04:29:37.587Z,13.50
2023-03-14T04:32:05.552Z,14.00
2023-03-14T04:34:33.290Z,13.90
2023-03-14T04:37:01.132Z,14.00
2023-03-14T04:39:28.987Z,13.90
2023-03-14T04:41:58.290Z,13.70
2023-03-14T04:44:26.199Z,13.50
2023-03-14T04:46:54.192Z,13.70
2023-03-14T04:49:21.970Z,13.70
2023-03-14T04:51:51.689Z,13.50
2023-03-14T04:54:19.513Z,13.20
2023-03-14T04:56:47.205Z,13.50
2023-03-14T04:59:16.343Z,13.40
2023-03-14T05:01:44.060Z,13.40
2023-03-14T05:04:12.078Z,13.60
2023-03-14T05:06:40.551Z,13.60
2023-03-14T05:09:08.309Z,13.50
2023-03-14T05:11:36.106Z,13.30
2023-03-14T05:14:03.912Z,13.10
2023-03-14T05:16:33.026Z,13.10
2023-03-14T05:19:02.447Z,13.20
2023-03-14T05:21:30.695Z,13.20
2023-03-14T05:23:58.381Z,13.10
2023-03-14T05:26:26.237Z,13.20
2023-03-14T05:28:53.960Z,12.90
2023-03-14T05:31:21.708Z,13.30
2023-03-14T05:33:50.991Z,13.30
2023-03-14T05:36:18.732Z,13.30
2023-03-14T05:38:46.499Z,13.30
2023-03-14T05:41:14.228Z,13.00
2023-03-14T05:43:42.086Z,12.90
2023-03-14T05:46:09.887Z,13.30
2023-03-14T05:48:37.636Z,13.50
2023-03-14T05:51:07.448Z,13.40
2023-03-14T05:53:35.178Z,13.30
2023-03-14T05:56:03.081Z,13.40
2023-03-14T05:58:30.848Z,12.80
2023-03-14T06:00:58.574Z,13.30
2023-03-14T06:03:26.324Z,13.00
2023-03-14T06:05:54.173Z,12.50
2023-03-14T06:08:23.222Z,12.80
2023-03-14T06:10:51.069Z,13.40
2023-03-14T06:13:18.948Z,13.60
2023-03-14T06:15:47.314Z,13.00
2023-03-14T06:18:15.137Z,13.40
2023-03-14T06:20:42.999Z,13.40
2023-03-14T06:23:10.965Z,13.80
2023-03-14T06:25:40.339Z,13.60
2023-03-14T06:28:08.468Z,13.70
2023-03-14T06:30:36.742Z,13.80
2023-03-14T06:33:04.742Z,13.70
2023-03-14T06:35:32.584Z,13.80
2023-03-14T06:38:00.561Z,14.10
2023-03-14T06:40:28.456Z,14.00
2023-03-14T06:42:57.571Z,13.50
2023-03-14T06:45:25.389Z,13.50
2023-03-14T06:47:53.168Z,13.50
2023-03-14T06:50:23.095Z,14.10
2023-03-14T06:52:50.981Z,13.90
2023-03-14T06:55:21.256Z,14.10
2023-03-14T06:57:50.288Z,14.10
2023-03-14T07:00:20.320Z,13.90
2023-03-14T07:02:48.024Z,14.00
2023-03-14T07:05:15.773Z,13.70
2023-03-14T07:07:43.589Z,14.30
2023-03-14T07:10:12.603Z,14.30
2023-03-14T07:12:40.720Z,13.90
2023-03-14T07:15:18.182Z,14.40
2023-03-14T07:17:49.343Z,14.20
2023-03-14T07:20:17.386Z,14.00
2023-03-14T07:22:45.140Z,14.00
2023-03-14T07:25:13.100Z,14.00
2023-03-14T07:27:41.189Z,13.70
2023-03-14T07:30:09.769Z,13.70
2023-03-14T07:32:37.503Z,14.10
2023-03-14T07:35:08.044Z,13.80
2023-03-14T07:37:36.730Z,14.20
2023-03-14T07:40:08.069Z,14.40
2023-03-14T07:42:35.983Z,14.30
2023-03-14T07:45:04.121Z,14.00
2023-03-14T07:47:31.855Z,13.90
2023-03-14T07:49:59.652Z,13.80
2023-03-14T07:52:28.986Z,13.90
2023-03-14T07:54:56.718Z,13.70
2023-03-14T07:57:24.819Z,13.60
2023-03-14T07:59:52.648Z,13.90
2023-03-14T08:02:23.359Z,13.70
2023-03-14T08:04:51.707Z,13.60
2023-03-14T08:07:19.728Z,13.60
2023-03-14T08:09:48.969Z,13.60
2023-03-14T08:12:17.062Z,13.40
2023-03-14T08:14:45.002Z,13.20
2023-03-14T08:17:12.739Z,13.40
2023-03-14T08:19:40.512Z,13.40
2023-03-14T08:22:08.299Z,13.20
2023-03-14T08:24:36.590Z,13.30
2023-03-14T08:27:07.405Z,13.50
2023-03-14T08:29:36.626Z,13.70
2023-03-14T08:32:04.735Z,13.50
2023-03-14T08:34:32.494Z,13.50
2023-03-14T08:37:00.813Z,13.80
2023-03-14T08:39:28.616Z,13.70
2023-03-14T08:41:56.478Z,13.80
2023-03-14T08:44:25.785Z,13.60
2023-03-14T08:46:53.686Z,14.00
2023-03-14T08:49:21.464Z,13.90
2023-03-14T08:51:49.294Z,13.60
2023-03-14T08:54:17.133Z,14.10
2023-03-14T08:56:44.901Z,14.20
2023-03-14T08:59:12.889Z,14.40
2023-03-14T09:01:42.059Z,14.40
2023-03-14T09:04:10.792Z,14.50
2023-03-14T09:06:38.597Z,13.80
2023-03-14T09:09:06.341Z,14.30
2023-03-14T09:11:34.320Z,14.50
2023-03-14T09:14:02.332Z,14.30
2023-03-14T09:16:30.088Z,13.90
2023-03-14T09:19:00.665Z,14.40
2023-03-14T09:21:29.220Z,14.30
2023-03-14T09:23:57.080Z,13.90
2023-03-14T09:26:24.869Z,14.40
2023-03-14T09:28:52.605Z,14.10
2023-03-14T09:31:20.450Z,14.40
2023-03-14T09:33:49.442Z,14.40
2023-03-14T09:36:18.554Z,14.60
2023-03-14T09:38:46.364Z,14.70
2023-03-14T09:41:17.947Z,14.70
2023-03-14T09:43:48.471Z,14.80
2023-03-14T09:46:17.194Z,14.80
2023-03-14T09:48:46.020Z,14.90
2023-03-14T09:51:16.363Z,14.80
2023-03-14T09:53:47.402Z,14.80
2023-03-14T09:56:19.882Z,14.90
2023-03-14T09:58:52.419Z,14.80
2023-03-14T10:01:25.833Z,15.10
2023-03-14T10:03:57.231Z,15.00
2023-03-14T10:06:28.929Z,14.90
2023-03-14T10:08:58.776Z,15.20
2023-03-14T10:11:27.738Z,15.20
2023-03-14T10:14:08.065Z,15.30
2023-03-14T10:16:38.431Z,15.30
2023-03-14T10:19:09.160Z,15.50
2023-03-14T10:21:42.054Z,15.60
2023-03-14T10:24:20.820Z,15.70
2023-03-14T10:26:51.043Z,15.90
2023-03-14T10:29:18.893Z,15.70
2023-03-14T10:34:28.382Z,15.80
2023-03-14T10:36:58.498Z,15.70
2023-03-14T10:39:32.971Z,15.30
2023-03-14T10:42:14.309Z,15.20
2023-03-14T10:44:44.236Z,15.30
2023-03-14T10:47:20.426Z,15.40
2023-03-14T10:49:48.220Z,15.50
2023-03-14T10:52:30.826Z,15.50
2023-03-14T10:55:12.590Z,15.30
2023-03-14T10:57:40.995Z,15.50
2023-03-14T11:00:18.738Z,15.30
2023-03-14T11:03:06.940Z,15.10
2023-03-14T11:05:44.626Z,15.40
2023-03-14T11:08:20.656Z,15.50
2023-03-14T11:10:54.291Z,15.60
2023-03-14T11:13:27.452Z,15.60
2023-03-14T11:16:08.584Z,15.50
2023-03-14T11:19:02.271Z,15.40
2023-03-14T11:21:38.060Z,15.40
2023-03-14T11:24:36.795Z,15.20
2023-03-14T11:27:16.054Z,15.60
2023-03-14T11:29:53.986Z,15.80
2023-03-14T11:32:37.050Z,15.90
2023-03-14T11:35:10.825Z,16.10
2023-03-14T11:37:47.160Z,14.80
2023-03-14T11:40:18.745Z,14.50
2023-03-14T11:42:55.357Z,14.40
2023-03-14T11:45:31.042Z,13.80
2023-03-14T11:48:16.875Z,13.10
2023-03-14T11:50:46.042Z,13.00
2023-03-14T11:53:18.400Z,12.90
2023-03-14T11:55:47.757Z,12.90
2023-03-14T11:58:22.319Z,13.00
2023-03-14T12:00:53.672Z,12.90
2023-03-14T12:03:31.640Z,13.00
2023-03-14T12:06:11.483Z,12.60
2023-03-14T12:08:49.788Z,12.50
2023-03-14T12:11:22.521Z,12.50
2023-03-14T12:13:54.632Z,11.60
2023-03-14T12:16:47.793Z,11.70
2023-03-14T12:19:38.202Z,11.30
2023-03-14T12:22:30.696Z,11.10
2023-03-14T12:25:06.806Z,10.80
2023-03-14T12:28:06.118Z,10.60
2023-03-14T12:30:38.611Z,10.50
2023-03-14T12:33:28.427Z,10.10
2023-03-14T12:36:04.911Z,10.50
2023-03-14T12:38:47.896Z,10.30
2023-03-14T12:41:19.353Z,10.30
2023-03-14T12:43:47.263Z,9.80
2023-03-14T12:46:34.478Z,10.00
2023-03-14T12:49:09.342Z,10.10
2023-03-14T12:51:38.758Z,9.90
2023-03-14T12:54:36.363Z,9.90
2023-03-14T12:57:27.935Z,10.00
2023-03-14T12:59:59.463Z,10.10
2023-03-14T13:02:30.428Z,10.10
2023-03-14T13:05:06.247Z,9.60
2023-03-14T13:07:37.542Z,9.50
2023-03-14T13:10:20.321Z,9.90
2023-03-14T13:12:53.289Z,10.00
2023-03-14T13:15:29.773Z,10.10
2023-03-14T13:18:04.896Z,10.10
2023-03-14T13:20:36.185Z,9.80
2023-03-14T13:23:05.973Z,10.10
2023-03-14T13:25:35.573Z,10.00
2023-03-14T13:28:03.945Z,10.40
2023-03-14T13:30:41.986Z,10.00
2023-03-14T13:33:16.686Z,10.10
2023-03-14T13:35:47.739Z,10.00
2023-03-14T13:38:19.846Z,10.10
2023-03-14T13:40:51.021Z,9.90
2023-03-14T13:43:25.938Z,9.70
2023-03-14T13:45:56.766Z,10.00
2023-03-14T13:48:30.775Z,10.40
2023-03-14T13:51:02.743Z,10.50
2023-03-14T13:53:30.550Z,10.40
2023-03-14T13:55:58.464Z,10.70
2023-03-14T13:58:30.783Z,10.40
2023-03-14T14:01:02.329Z,10.70
2023-03-14T14:03:33.812Z,10.40
2023-03-14T14:06:01.705Z,10.60
2023-03-14T14:08:29.638Z,10.60
2023-03-14T14:11:02.550Z,10.70
2023-03-14T14:13:35.437Z,10.50
2023-03-14T14:16:05.699Z,10.40
2023-03-14T14:18:35.973Z,10.40
2023-03-14T14:21:05.113Z,9.80
2023-03-14T14:23:33.365Z,10.20
2023-03-14T14:26:01.901Z,10.40
2023-03-14T14:28:32.072Z,10.40
2023-03-14T14:31:18.876Z,10.50
2023-03-14T14:33:55.117Z,10.40
2023-03-14T14:36:25.405Z,10.40
2023-03-14T14:38:55.055Z,10.50
2023-03-14T14:41:23.444Z,10.50
2023-03-14T14:43:53.671Z,10.30
2023-03-14T14:46:22.819Z,10.50
2023-03-14T14:48:58.300Z,10.60
2023-03-14T14:51:35.019Z,10.50
2023-03-14T14:54:06.807Z,10.50
2023-03-14T14:56:38.239Z,10.40
2023-03-14T14:59:08.059Z,10.30
2023-03-14T15:01:38.312Z,10.20
2023-03-14T15:04:14.896Z,10.20
2023-03-14T15:06:46.111Z,10.00
2023-03-14T15:09:14.286Z,10.10
2023-03-14T15:11:43.348Z,9.90
2023-03-14T15:14:11.236Z,10.10
2023-03-14T15:16:40.851Z,10.00
2023-03-14T15:19:24.168Z,10.10
2023-03-14T15:21:54.432Z,10.10
2023-03-14T15:24:22.662Z,10.40
2023-03-14T15:26:50.544Z,10.10
2023-03-14T15:29:18.500Z,10.20
2023-03-14T15:31:46.445Z,10.40
2023-03-14T15:34:15.981Z,9.90
2023-03-14T15:36:43.825Z,10.20
2023-03-14T15:39:12.394Z,10.20
2023-03-14T15:41:40.224Z,10.20
2023-03-14T15:44:08.241Z,10.30
2023-03-14T15:46:36.204Z,10.30
2023-03-14T15:49:04.055Z,10.00
2023-03-14T15:51:34.114Z,9.90
2023-03-14T15:54:02.043Z,10.10
2023-03-14T15:56:31.993Z,10.30
2023-03-14T15:59:00.346Z,10.10
2023-03-14T16:01:28.237Z,10.10
2023-03-14T16:03:56.753Z,10.10
2023-03-14T16:06:24.572Z,10.00
2023-03-14T16:08:53.803Z,9.90
2023-03-14T16:11:22.975Z,10.00
2023-03-14T16:13:51.217Z,9.80
2023-03-14T16:16:19.095Z,9.80
2023-03-14T16:18:47.035Z,9.60
2023-03-14T16:21:16.226Z,9.50
2023-03-14T16:23:44.208Z,9.80
2023-03-14T16:26:16.738Z,9.60
2023-03-14T16:28:46.432Z,9.70
2023-03-14T16:31:16.384Z,9.80
2023-03-14T16:33:45.018Z,9.50
2023-03-14T16:36:15.053Z,9.90
2023-03-14T16:38:44.596Z,10.10
2023-03-14T16:41:15.426Z,9.90
2023-03-14T16:43:43.897Z,10.10
2023-03-14T16:46:17.141Z,9.90
2023-03-14T16:48:45.517Z,10.00
2023-03-14T16:51:14.047Z,9.90
2023-03-14T16:53:42.055Z,10.00
2023-03-14T16:56:11.023Z,10.20
2023-03-14T16:58:40.553Z,10.10
2023-03-14T17:01:11.566Z,9.90
2023-03-14T17:03:40.934Z,10.00
2023-03-14T17:06:09.638Z,9.90
2023-03-14T17:08:37.581Z,9.70
2023-03-14T17:11:05.515Z,9.90
2023-03-14T17:13:33.282Z,10.10
2023-03-14T17:16:03.144Z,10.00
2023-03-14T17:18:32.060Z,9.80
2023-03-14T17:21:00.295Z,9.90
2023-03-14T17:23:29.788Z,9.90
2023-03-14T17:25:58.070Z,9.80
2023-03-14T17:28:27.466Z,9.80
2023-03-14T17:31:06.674Z,10.00
2023-03-14T17:33:34.921Z,9.80
2023-03-14T17:36:02.732Z,9.90
2023-03-14T17:38:30.889Z,9.70
2023-03-14T17:40:58.622Z,9.90
2023-03-14T17:43:26.313Z,9.90
2023-03-14T17:46:00.396Z,9.60
2023-03-14T17:48:30.084Z,9.90
2023-03-14T17:51:01.770Z,9.90
2023-03-14T17:53:30.430Z,10.00
2023-03-14T17:55:58.288Z,10.10
2023-03-14T17:58:27.234Z,9.90
2023-03-14T18:00:55.545Z,9.90
2023-03-14T18:03:23.629Z,9.60
2023-03-14T18:05:52.824Z,9.60
2023-03-14T18:08:20.572Z,9.80
2023-03-14T18:10:48.353Z,9.80
2023-03-14T18:13:16.159Z,9.90
2023-03-14T18:15:44.251Z,9.80
2023-03-14T18:18:12.028Z,9.90
2023-03-14T18:20:39.836Z,9.80
2023-03-14T18:23:09.198Z,10.00
2023-03-14T18:25:37.021Z,10.20
2023-03-14T18:28:04.799Z,9.90
2023-03-14T18:30:32.697Z,10.10
2023-03-14T18:33:00.598Z,10.10
2023-03-14T18:35:28.493Z,10.00
2023-03-14T18:37:56.325Z,10.20
2023-03-14T18:40:25.825Z,10.10
2023-03-14T18:42:53.661Z,9.90
2023-03-14T18:45:21.611Z,10.30
2023-03-14T18:47:49.424Z,10.20
2023-03-14T18:50:17.797Z,10.10
2023-03-14T18:52:45.606Z,9.90
2023-03-14T18:55:13.449Z,9.70
2023-03-14T18:57:42.654Z,9.60
2023-03-14T19:00:12.811Z,9.70
2023-03-14T19:02:43.841Z,9.70
2023-03-14T19:05:13.406Z,9.50
2023-03-14T19:07:42.536Z,9.60
2023-03-14T19:10:12.247Z,9.40
2023-03-14T19:12:40.043Z,9.70
2023-03-14T19:15:11.891Z,9.50
2023-03-14T19:17:39.740Z,9.60
2023-03-14T19:20:08.211Z,9.60
2023-03-14T19:22:36.223Z,9.70
2023-03-14T19:25:06.033Z,9.60
2023-03-14T19:27:34.380Z,9.70
2023-03-14T19:30:02.327Z,9.80
2023-03-14T19:32:31.783Z,9.80
2023-03-14T19:34:59.662Z,9.70
2023-03-14T19:37:27.457Z,9.60
2023-03-14T19:39:55.488Z,9.60
2023-03-14T19:42:23.239Z,9.50
2023-03-14T19:44:51.162Z,9.40
2023-03-14T19:47:18.989Z,9.70
2023-03-14T19:49:48.186Z,9.70
2023-03-14T19:52:15.937Z,9.50
2023-03-14T19:54:43.840Z,9.50
2023-03-14T19:57:11.675Z,9.50
2023-03-14T19:59:39.457Z,9.60
2023-03-14T20:02:07.351Z,9.70
2023-03-14T20:04:36.039Z,9.70
2023-03-14T20:07:05.459Z,9.60
2023-03-14T20:09:33.359Z,9.60
2023-03-14T20:12:01.565Z,9.60
2023-03-14T20:14:29.569Z,9.60
2023-03-14T20:16:57.586Z,9.60
2023-03-14T20:19:25.840Z,9.70
2023-03-14T20:21:53.692Z,9.40
2023-03-14T20:24:23.371Z,9.50
2023-03-14T20:26:51.340Z,9.50
2023-03-14T20:29:19.264Z,9.20
2023-03-14T20:31:47.403Z,9.30
2023-03-14T20:34:15.378Z,9.40
2023-03-14T20:36:44.299Z,9.20
2023-03-14T20:39:15.853Z,9.40
2023-03-14T20:41:45.059Z,9.50
2023-03-14T20:44:13.519Z,9.20
2023-03-14T20:46:41.993Z,9.10
2023-03-14T20:49:09.925Z,9.20
2023-03-14T20:51:37.716Z,9.00
2023-03-14T20:54:07.482Z,8.80
2023-03-14T20:56:35.277Z,8.90
2023-03-14T20:59:04.996Z,8.80
2023-03-14T21:01:33.094Z,8.80
2023-03-14T21:04:00.891Z,8.80
2023-03-14T21:06:28.770Z,8.70
2023-03-14T21:08:59.008Z,8.70
2023-03-14T21:11:27.371Z,8.70
2023-03-14T21:13:55.309Z,8.60
2023-03-14T21:16:24.456Z,8.40
2023-03-14T21:18:52.342Z,8.50
2023-03-14T21:21:20.210Z,8.50
2023-03-14T21:23:48.070Z,8.30
2023-03-14T21:26:15.839Z,8.10
2023-03-14T21:28:43.742Z,8.20
2023-03-14T21:31:12.407Z,8.10
2023-03-14T21:33:44.723Z,8.00
2023-03-14T21:36:12.590Z,8.00
2023-03-14T21:38:40.364Z,8.00
2023-03-14T21:41:08.665Z,7.80
2023-03-14T21:43:37.673Z,7.80
2023-03-14T21:46:05.859Z,7.80
2023-03-14T21:48:34.062Z,7.50
2023-03-14T21:51:06.841Z,7.70
2023-03-14T21:53:34.885Z,7.70
2023-03-14T21:56:03.607Z,7.30
2023-03-14T21:58:31.407Z,7.60
2023-03-14T22:01:05.181Z,7.50
2023-03-14T22:03:35.306Z,7.50
2023-03-14T22:06:03.702Z,7.50
2023-03-14T22:08:33.468Z,7.60
2023-03-14T22:11:01.286Z,7.60
2023-03-14T22:13:28.977Z,7.70
2023-03-14T22:15:56.773Z,7.60
2023-03-14T22:18:26.020Z,7.60
2023-03-14T22:20:54.394Z,7.50
2023-03-14T22:23:22.171Z,7.50
2023-03-14T22:25:51.360Z,7.40
2023-03-14T22:28:19.878Z,7.50
2023-03-14T22:30:48.876Z,7.50
2023-03-14T22:33:17.357Z,7.40
2023-03-14T22:35:48.817Z,7.60
2023-03-14T22:38:16.721Z,7.60
2023-03-14T22:40:44.572Z,7.60
2023-03-14T22:43:13.674Z,7.50
2023-03-14T22:45:41.479Z,7.40
2023-03-14T22:48:09.256Z,7.30
2023-03-14T22:50:39.348Z,7.50
2023-03-14T22:53:07.195Z,7.50
2023-03-14T22:55:35.018Z,7.50
2023-03-14T22:58:02.840Z,7.50
2023-03-14T23:00:33.005Z,7.50
2023-03-14T23:03:00.851Z,7.60
2023-03-14T23:05:29.037Z,7.60
2023-03-14T23:07:56.787Z,7.60
2023-03-14T23:10:24.649Z,7.50
2023-03-14T23:12:54.320Z,7.60
2023-03-14T23:15:22.055Z,7.40
2023-03-14T23:17:51.234Z,7.30
2023-03-14T23:20:18.923Z,7.40
2023-03-14T23:22:46.704Z,7.30
2023-03-14T23:25:14.501Z,7.30
2023-03-14T23:27:46.480Z,7.20
2023-03-14T23:30:15.896Z,7.10
2023-03-14T23:32:44.306Z,7.00
2023-03-14T23:35:15.158Z,7.20
2023-03-14T23:37:45.764Z,7.20
2023-03-14T23:40:14.356Z,6.90
2023-03-14T23:42:42.680Z,6.90
2023-03-14T23:45:14.241Z,6.90
2023-03-14T23:47:42.629Z,6.90
2023-03-14T23:50:11.968Z,6.90
2023-03-14T23:52:41.441Z,6.90
2023-03-14T23:55:10.034Z,6.80
2023-03-14T23:57:38.259Z,6.80
